METAR Data
IDs: Format: Raw Decoded Include TAF

Data at: 0652 UTC 03 Aug 2021

ESSD 030620Z 31007KT CAVOK 12/06 Q1009